createdAt,value
2018-12-02T00:00:54.074Z,97979.55
2018-12-02T00:03:21.926Z,97969.61
2018-12-02T00:05:49.479Z,97964.44
2018-12-02T00:08:20.465Z,97960.70
2018-12-02T00:10:48.054Z,97959.20
2018-12-02T00:13:18.564Z,97958.71
2018-12-02T00:15:46.196Z,97947.63
2018-12-02T00:18:14.187Z,97950.45
2018-12-02T00:20:42.949Z,97941.72
2018-12-02T00:23:10.873Z,97931.84
2018-12-02T00:25:38.737Z,97936.70
2018-12-02T00:28:07.214Z,97938.97
2018-12-02T00:30:35.036Z,97924.37
2018-12-02T00:33:02.837Z,97932.90
2018-12-02T00:35:30.450Z,97930.19
2018-12-02T00:37:58.961Z,97917.68
2018-12-02T00:40:26.690Z,97913.47
2018-12-02T00:42:54.771Z,97906.36
2018-12-02T00:45:23.677Z,97916.89
2018-12-02T00:47:51.746Z,97913.37
2018-12-02T00:50:19.659Z,97911.20
2018-12-02T00:52:49.540Z,97904.44
2018-12-02T00:55:19.792Z,97908.84
2018-12-02T00:57:48.614Z,97909.80
2018-12-02T01:00:16.589Z,97897.70
2018-12-02T01:02:45.294Z,97894.39
2018-12-02T01:05:14.536Z,97893.94
2018-12-02T01:07:42.187Z,97896.47
2018-12-02T01:10:13.357Z,97884.16
2018-12-02T01:12:40.950Z,97888.00
2018-12-02T01:15:09.468Z,97883.70
2018-12-02T01:17:36.997Z,97880.47
2018-12-02T01:20:05.411Z,97881.08
2018-12-02T01:22:32.932Z,97881.59
2018-12-02T01:25:00.467Z,97878.30
2018-12-02T01:27:28.006Z,97868.64
2018-12-02T01:29:55.603Z,97861.23
2018-12-02T01:32:23.179Z,97858.81
2018-12-02T01:34:50.729Z,97857.13
2018-12-02T01:37:18.249Z,97864.60
2018-12-02T01:39:45.778Z,97855.91
2018-12-02T01:42:13.433Z,97851.90
2018-12-02T01:44:41.063Z,97846.27
2018-12-02T01:47:08.649Z,97846.70
2018-12-02T01:49:36.289Z,97844.13
2018-12-02T01:52:03.881Z,97830.95
2018-12-02T01:54:31.400Z,97837.55
2018-12-02T01:56:59.084Z,97840.97
2018-12-02T01:59:26.634Z,97839.78
2018-12-02T02:01:54.390Z,97833.10
2018-12-02T02:04:21.890Z,97826.03
2018-12-02T02:06:49.511Z,97824.71
2018-12-02T02:09:17.057Z,97831.97
2018-12-02T02:11:44.613Z,97817.95
2018-12-02T02:14:12.175Z,97798.34
2018-12-02T02:16:39.696Z,97798.70
2018-12-02T02:19:07.212Z,97794.88
2018-12-02T02:21:34.741Z,97792.64
2018-12-02T02:24:02.346Z,97789.28
2018-12-02T02:26:30.019Z,97797.55
2018-12-02T02:28:57.685Z,97792.48
2018-12-02T02:31:25.256Z,97788.52
2018-12-02T02:33:52.791Z,97785.19
2018-12-02T02:36:20.417Z,97786.11
2018-12-02T02:38:47.929Z,97774.36
2018-12-02T02:41:15.772Z,97771.63
2018-12-02T02:43:43.268Z,97767.78
2018-12-02T02:46:11.045Z,97760.03
2018-12-02T02:48:38.685Z,97761.28
2018-12-02T02:51:06.283Z,97765.00
2018-12-02T02:53:33.899Z,97741.28
2018-12-02T02:56:01.412Z,97744.31
2018-12-02T02:58:29.155Z,97737.92
2018-12-02T03:00:56.798Z,97730.52
2018-12-02T03:03:24.395Z,97730.84
2018-12-02T03:05:51.965Z,97730.03
2018-12-02T03:08:19.541Z,97725.13
2018-12-02T03:10:47.088Z,97723.73
2018-12-02T03:13:14.796Z,97718.44
2018-12-02T03:15:42.326Z,97723.11
2018-12-02T03:18:10.030Z,97716.86
2018-12-02T03:20:37.671Z,97711.23
2018-12-02T03:23:05.234Z,97710.28
2018-12-02T03:25:32.885Z,97705.27
2018-12-02T03:28:00.482Z,97702.05
2018-12-02T03:30:28.008Z,97693.78
2018-12-02T03:32:55.703Z,97686.70
2018-12-02T03:35:24.769Z,97686.70
2018-12-02T03:37:52.519Z,97683.19
2018-12-02T03:40:23.808Z,97676.53
2018-12-02T03:42:52.115Z,97671.05
2018-12-02T03:45:20.220Z,97662.30
2018-12-02T03:47:47.797Z,97657.42
2018-12-02T03:50:17.798Z,97658.28
2018-12-02T03:52:44.381Z,97650.38
2018-12-02T03:55:11.956Z,97642.09
2018-12-02T03:57:39.723Z,97635.86
2018-12-02T04:00:09.277Z,97641.73
2018-12-02T04:02:37.118Z,97637.67
2018-12-02T04:05:04.662Z,97636.07
2018-12-02T04:07:32.187Z,97631.41
2018-12-02T04:09:59.778Z,97632.80
2018-12-02T04:12:27.273Z,97634.70
2018-12-02T04:14:54.821Z,97626.31
2018-12-02T04:17:22.449Z,97618.66
2018-12-02T04:19:50.159Z,97625.67
2018-12-02T04:22:17.815Z,97616.88
2018-12-02T04:24:45.426Z,97606.95
2018-12-02T04:27:12.969Z,97608.80
2018-12-02T04:29:40.567Z,97608.56
2018-12-02T04:32:08.079Z,97603.42
2018-12-02T04:34:35.650Z,97596.59
2018-12-02T04:37:03.190Z,97595.28
2018-12-02T04:39:30.739Z,97599.42
2018-12-02T04:41:58.329Z,97594.58
2018-12-02T04:44:25.846Z,97596.54
2018-12-02T04:46:53.501Z,97590.49
2018-12-02T04:49:21.154Z,97587.15
2018-12-02T04:51:48.666Z,97581.42
2018-12-02T04:54:16.269Z,97589.67
2018-12-02T04:56:43.845Z,97587.19
2018-12-02T04:59:11.373Z,97580.16
2018-12-02T05:01:38.993Z,97582.69
2018-12-02T05:04:06.491Z,97579.29
2018-12-02T05:06:34.047Z,97575.88
2018-12-02T05:09:01.612Z,97573.34
2018-12-02T05:11:29.129Z,97583.37
2018-12-02T05:13:56.679Z,97579.70
2018-12-02T05:16:24.208Z,97583.14
2018-12-02T05:18:51.860Z,97577.87
2018-12-02T05:21:19.523Z,97578.89
2018-12-02T05:23:47.199Z,97573.03
2018-12-02T05:26:14.855Z,97576.25
2018-12-02T05:28:42.416Z,97577.37
2018-12-02T05:31:09.945Z,97568.11
2018-12-02T05:33:37.724Z,97575.20
2018-12-02T05:36:05.461Z,97569.00
2018-12-02T05:38:33.083Z,97572.52
2018-12-02T05:41:00.633Z,97568.03
2018-12-02T05:43:28.280Z,97570.70
2018-12-02T05:45:55.819Z,97567.91
2018-12-02T05:48:23.401Z,97569.70
2018-12-02T05:50:51.062Z,97567.33
2018-12-02T05:53:18.668Z,97567.25
2018-12-02T05:55:46.250Z,97571.91
2018-12-02T05:58:13.841Z,97576.47
2018-12-02T06:00:41.365Z,97567.25
2018-12-02T06:03:08.991Z,97565.12
2018-12-02T06:05:36.663Z,97552.95
2018-12-02T06:08:04.269Z,97564.08
2018-12-02T06:10:31.794Z,97557.14
2018-12-02T06:12:59.308Z,97552.88
2018-12-02T06:15:27.074Z,97552.79
2018-12-02T06:17:54.627Z,97547.33
2018-12-02T06:20:23.129Z,97556.50
2018-12-02T06:22:51.350Z,97540.13
2018-12-02T06:25:18.954Z,97541.27
2018-12-02T06:27:46.653Z,97537.41
2018-12-02T06:30:14.768Z,97535.00
2018-12-02T06:32:42.437Z,97537.17
2018-12-02T06:35:10.697Z,97532.48
2018-12-02T06:37:38.246Z,97529.14
2018-12-02T06:40:09.857Z,97524.37
2018-12-02T06:42:37.535Z,97528.11
2018-12-02T06:45:05.571Z,97524.48
2018-12-02T06:47:33.239Z,97519.61
2018-12-02T06:50:00.897Z,97521.50
2018-12-02T06:52:28.430Z,97515.81
2018-12-02T06:54:59.365Z,97515.56
2018-12-02T06:57:29.546Z,97505.53
2018-12-02T07:00:05.283Z,97504.03
2018-12-02T07:02:40.401Z,97497.21
2018-12-02T07:05:10.120Z,97494.72
2018-12-02T07:07:37.708Z,97486.83
2018-12-02T07:10:05.406Z,97495.43
2018-12-02T07:12:33.181Z,97498.23
2018-12-02T07:15:00.933Z,97507.63
2018-12-02T07:17:33.295Z,97490.31
2018-12-02T07:20:02.880Z,97494.77
2018-12-02T07:22:33.110Z,97496.02
2018-12-02T07:25:03.366Z,97497.40
2018-12-02T07:27:31.056Z,97495.30
2018-12-02T07:29:58.609Z,97488.84
2018-12-02T07:32:26.544Z,97488.55
2018-12-02T07:34:54.490Z,97485.03
2018-12-02T07:37:22.829Z,97479.71
2018-12-02T07:39:57.664Z,97486.39
2018-12-02T07:42:25.174Z,97477.61
2018-12-02T07:44:52.869Z,97471.03
2018-12-02T07:47:20.997Z,97482.34
2018-12-02T07:49:50.324Z,97471.03
2018-12-02T07:52:18.004Z,97480.89
2018-12-02T07:54:45.554Z,97479.72
2018-12-02T07:57:13.089Z,97474.10
2018-12-02T07:59:40.679Z,97478.02
2018-12-02T08:02:08.450Z,97472.41
2018-12-02T08:04:36.241Z,97468.70
2018-12-02T08:07:03.969Z,97466.60
2018-12-02T08:09:31.586Z,97460.55
2018-12-02T08:11:59.362Z,97460.83
2018-12-02T08:14:26.943Z,97460.66
2018-12-02T08:16:54.513Z,97455.61
2018-12-02T08:19:22.183Z,97456.88
2018-12-02T08:21:49.921Z,97459.84
2018-12-02T08:24:17.504Z,97453.89
2018-12-02T08:26:45.079Z,97446.16
2018-12-02T08:29:12.928Z,97446.52
2018-12-02T08:31:40.603Z,97450.55
2018-12-02T08:34:08.144Z,97454.45
2018-12-02T08:36:35.844Z,97451.00
2018-12-02T08:39:03.484Z,97451.24
2018-12-02T08:41:31.045Z,97444.58
2018-12-02T08:43:58.736Z,97451.05
2018-12-02T08:46:26.273Z,97446.02
2018-12-02T08:48:53.838Z,97456.09
2018-12-02T08:51:21.606Z,97462.43
2018-12-02T08:53:49.143Z,97466.00
2018-12-02T08:56:16.665Z,97467.81
2018-12-02T08:58:44.464Z,97467.55
2018-12-02T09:01:12.233Z,97465.09
2018-12-02T09:03:40.049Z,97463.55
2018-12-02T09:06:07.658Z,97460.12
2018-12-02T09:08:35.248Z,97460.01
2018-12-02T09:11:03.238Z,97465.63
2018-12-02T09:13:30.816Z,97471.36
2018-12-02T09:15:58.379Z,97460.52
2018-12-02T09:18:26.005Z,97463.99
2018-12-02T09:20:53.754Z,97456.34
2018-12-02T09:23:21.304Z,97458.09
2018-12-02T09:25:48.867Z,97451.55
2018-12-02T09:28:16.621Z,97448.91
2018-12-02T09:30:44.307Z,97448.56
2018-12-02T09:33:11.919Z,97444.05
2018-12-02T09:35:39.597Z,97444.73
2018-12-02T09:38:07.303Z,97443.64
2018-12-02T09:40:34.885Z,97440.14
2018-12-02T09:43:02.434Z,97438.70
2018-12-02T09:45:30.231Z,97436.23
2018-12-02T09:47:58.567Z,97436.83
2018-12-02T09:50:26.381Z,97437.00
2018-12-02T09:52:54.043Z,97427.43
2018-12-02T09:55:22.258Z,97428.75
2018-12-02T09:57:50.122Z,97420.42
2018-12-02T10:00:18.707Z,97426.23
2018-12-02T10:02:46.394Z,97412.64
2018-12-02T10:05:14.050Z,97425.13
2018-12-02T10:07:41.673Z,97405.32
2018-12-02T10:10:12.820Z,97412.64
2018-12-02T10:12:40.709Z,97385.38
2018-12-02T10:15:10.221Z,97417.23
2018-12-02T10:17:38.136Z,97409.36
2018-12-02T10:20:06.979Z,97407.74
2018-12-02T10:22:34.594Z,97402.16
2018-12-02T10:25:02.139Z,97394.38
2018-12-02T10:27:29.952Z,97392.89
2018-12-02T10:29:57.559Z,97396.66
2018-12-02T10:32:25.299Z,97405.89
2018-12-02T10:34:53.002Z,97412.77
2018-12-02T10:37:20.716Z,97419.00
2018-12-02T10:39:48.370Z,97414.04
2018-12-02T10:42:15.933Z,97419.75
2018-12-02T10:44:43.500Z,97430.25
2018-12-02T10:47:11.441Z,97418.84
2018-12-02T10:49:39.011Z,97428.08
2018-12-02T10:52:06.636Z,97425.49
2018-12-02T10:54:34.322Z,97424.17
2018-12-02T10:57:02.032Z,97435.45
2018-12-02T10:59:30.157Z,97426.06
2018-12-02T11:02:15.513Z,97424.61
2018-12-02T11:04:43.391Z,97431.87
2018-12-02T11:07:10.915Z,97440.67
2018-12-02T11:09:38.557Z,97443.18
2018-12-02T11:12:06.123Z,97431.55
2018-12-02T11:14:33.699Z,97436.23
2018-12-02T11:17:01.320Z,97423.66
2018-12-02T11:19:29.111Z,97423.91
2018-12-02T11:21:56.700Z,97417.69
2018-12-02T11:24:24.625Z,97419.34
2018-12-02T11:26:52.166Z,97411.05
2018-12-02T11:29:19.801Z,97401.75
2018-12-02T11:31:47.574Z,97406.71
2018-12-02T11:34:15.254Z,97395.88
2018-12-02T11:36:43.020Z,97389.47
2018-12-02T11:39:10.661Z,97391.25
2018-12-02T11:41:38.255Z,97396.33
2018-12-02T11:44:05.916Z,97399.08
2018-12-02T11:46:33.488Z,97405.01
2018-12-02T11:49:00.986Z,97395.08
2018-12-02T11:51:28.754Z,97393.94
2018-12-02T11:53:56.409Z,97402.22
2018-12-02T11:56:24.103Z,97395.94
2018-12-02T11:58:51.658Z,97397.65
2018-12-02T12:01:19.193Z,97393.01
2018-12-02T12:03:46.986Z,97395.50
2018-12-02T12:06:14.647Z,97390.59
2018-12-02T12:08:42.204Z,97392.39
2018-12-02T12:11:09.757Z,97391.20
2018-12-02T12:13:37.511Z,97394.28
2018-12-02T12:16:05.226Z,97397.67
2018-12-02T12:18:32.981Z,97388.64
2018-12-02T12:21:00.558Z,97395.98
2018-12-02T12:23:28.257Z,97392.02
2018-12-02T12:25:56.235Z,97392.71
2018-12-02T12:28:23.772Z,97391.27
2018-12-02T12:30:51.405Z,97392.50
2018-12-02T12:33:19.393Z,97393.06
2018-12-02T12:35:48.232Z,97396.34
2018-12-02T12:38:15.842Z,97387.23
2018-12-02T12:40:43.774Z,97394.86
2018-12-02T12:43:15.588Z,97391.05
2018-12-02T12:45:43.406Z,97387.13
2018-12-02T12:48:10.973Z,97387.52
2018-12-02T12:50:38.600Z,97389.21
2018-12-02T12:53:06.246Z,97389.67
2018-12-02T12:55:33.784Z,97396.14
2018-12-02T12:58:01.329Z,97387.23
2018-12-02T13:00:29.047Z,97387.55
2018-12-02T13:02:56.643Z,97394.27
2018-12-02T13:05:24.701Z,97388.88
2018-12-02T13:07:52.596Z,97385.54
2018-12-02T13:10:20.249Z,97388.89
2018-12-02T13:12:48.622Z,97394.52
2018-12-02T13:15:17.255Z,97396.53
2018-12-02T13:17:46.925Z,97398.10
2018-12-02T13:20:15.262Z,97395.58
2018-12-02T13:22:42.813Z,97389.83
2018-12-02T13:25:11.124Z,97403.01
2018-12-02T13:27:38.776Z,97405.56
2018-12-02T13:30:08.662Z,97401.05
2018-12-02T13:32:36.305Z,97402.84
2018-12-02T13:35:03.906Z,97400.84
2018-12-02T13:37:31.566Z,97401.44
2018-12-02T13:39:59.210Z,97409.01
2018-12-02T13:42:27.034Z,97405.89
2018-12-02T13:44:54.612Z,97407.75
2018-12-02T13:47:22.315Z,97410.25
2018-12-02T13:49:50.636Z,97415.62
2018-12-02T13:52:18.293Z,97408.31
2018-12-02T13:54:45.908Z,97419.69
2018-12-02T13:57:13.610Z,97428.33
2018-12-02T13:59:41.310Z,97436.59
2018-12-02T14:02:09.191Z,97428.80
2018-12-02T14:04:37.082Z,97439.48
2018-12-02T14:07:04.652Z,97449.68
2018-12-02T14:09:33.036Z,97444.38
2018-12-02T14:11:59.830Z,97452.80
2018-12-02T14:14:27.390Z,97456.52
2018-12-02T14:16:58.253Z,97451.08
2018-12-02T14:19:25.837Z,97455.73
2018-12-02T14:21:53.366Z,97463.21
2018-12-02T14:24:20.892Z,97464.16
2018-12-02T14:26:49.080Z,97455.52
2018-12-02T14:29:20.951Z,97462.77
2018-12-02T14:31:49.766Z,97458.70
2018-12-02T14:34:17.424Z,97456.37
2018-12-02T14:36:44.969Z,97453.09
2018-12-02T14:39:12.753Z,97464.00
2018-12-02T14:41:40.349Z,97465.16
2018-12-02T14:44:08.450Z,97468.98
2018-12-02T14:46:36.300Z,97471.48
2018-12-02T14:49:04.001Z,97472.27
2018-12-02T14:51:31.672Z,97484.56
2018-12-02T14:53:59.358Z,97478.95
2018-12-02T14:56:26.991Z,97486.89
2018-12-02T14:58:54.644Z,97480.91
2018-12-02T15:01:22.453Z,97489.17
2018-12-02T15:03:50.058Z,97485.26
2018-12-02T15:06:17.625Z,97497.33
2018-12-02T15:08:45.356Z,97492.95
2018-12-02T15:11:12.967Z,97492.63
2018-12-02T15:13:40.561Z,97489.60
2018-12-02T15:16:08.327Z,97487.93
2018-12-02T15:18:36.059Z,97481.31
2018-12-02T15:21:03.924Z,97484.02
2018-12-02T15:23:31.639Z,97481.53
2018-12-02T15:25:59.185Z,97501.17
2018-12-02T15:28:26.889Z,97484.11
2018-12-02T15:30:54.596Z,97490.00
2018-12-02T15:33:22.240Z,97495.94
2018-12-02T15:35:49.800Z,97489.00
2018-12-02T15:38:17.680Z,97486.44
2018-12-02T15:40:45.928Z,97493.66
2018-12-02T15:43:13.559Z,97499.84
2018-12-02T15:45:41.301Z,97499.52
2018-12-02T15:48:09.044Z,97497.09
2018-12-02T15:50:36.805Z,97500.37
2018-12-02T15:53:04.410Z,97504.66
2018-12-02T15:55:32.741Z,97508.31
2018-12-02T15:58:00.957Z,97511.96
2018-12-02T16:00:32.366Z,97516.47
2018-12-02T16:03:00.038Z,97507.73
2018-12-02T16:05:27.636Z,97512.02
2018-12-02T16:07:55.304Z,97508.36
2018-12-02T16:10:22.978Z,97504.64
2018-12-02T16:12:51.589Z,97509.74
2018-12-02T16:15:25.064Z,97508.83
2018-12-02T16:17:52.793Z,97516.36
2018-12-02T16:20:25.082Z,97513.59
2018-12-02T16:22:52.868Z,97519.89
2018-12-02T16:25:20.553Z,97521.06
2018-12-02T16:27:48.120Z,97516.45
2018-12-02T16:30:16.213Z,97511.30
2018-12-02T16:32:47.595Z,97504.75
2018-12-02T16:35:15.667Z,97507.70
2018-12-02T16:37:43.429Z,97510.78
2018-12-02T16:40:11.789Z,97515.44
2018-12-02T16:42:39.384Z,97518.40
2018-12-02T16:45:08.274Z,97510.55
2018-12-02T16:47:35.923Z,97513.31
2018-12-02T16:50:04.276Z,97513.75
2018-12-02T16:52:31.871Z,97514.86
2018-12-02T16:54:59.509Z,97513.95
2018-12-02T16:57:27.096Z,97514.02
2018-12-02T16:59:54.804Z,97519.93
2018-12-02T17:02:22.487Z,97510.41
2018-12-02T17:04:50.071Z,97508.70
2018-12-02T17:07:17.782Z,97504.26
2018-12-02T17:09:45.314Z,97513.05
2018-12-02T17:12:12.961Z,97503.00
2018-12-02T17:14:40.619Z,97513.52
2018-12-02T17:17:08.182Z,97498.55
2018-12-02T17:19:35.823Z,97498.80
2018-12-02T17:22:03.389Z,97495.06
2018-12-02T17:24:30.985Z,97499.97
2018-12-02T17:26:58.518Z,97498.64
2018-12-02T17:29:26.184Z,97506.49
2018-12-02T17:31:58.154Z,97504.00
2018-12-02T17:34:25.913Z,97506.44
2018-12-02T17:36:56.787Z,97508.02
2018-12-02T17:39:25.615Z,97518.60
2018-12-02T17:41:56.895Z,97515.39
2018-12-02T17:44:24.445Z,97500.46
2018-12-02T17:46:52.062Z,97505.11
2018-12-02T17:49:19.672Z,97500.84
2018-12-02T17:51:47.287Z,97493.88
2018-12-02T17:54:14.985Z,97508.70
2018-12-02T17:56:42.630Z,97506.17
2018-12-02T17:59:10.202Z,97510.14
2018-12-02T18:01:37.883Z,97511.02
2018-12-02T18:04:06.042Z,97508.05
2018-12-02T18:06:33.612Z,97517.31
2018-12-02T18:09:01.171Z,97514.58
2018-12-02T18:11:28.775Z,97524.02
2018-12-02T18:13:56.282Z,97523.42
2018-12-02T18:16:23.930Z,97525.54
2018-12-02T18:18:51.541Z,97529.52
2018-12-02T18:21:19.141Z,97528.89
2018-12-02T18:23:46.684Z,97535.20
2018-12-02T18:26:14.273Z,97528.73
2018-12-02T18:28:41.811Z,97531.06
2018-12-02T18:31:10.046Z,97530.83
2018-12-02T18:33:37.656Z,97536.69
2018-12-02T18:36:09.273Z,97531.23
2018-12-02T18:38:37.852Z,97521.73
2018-12-02T18:41:10.981Z,97506.73
2018-12-02T18:43:38.558Z,97509.78
2018-12-02T18:46:06.554Z,97507.53
2018-12-02T18:48:34.297Z,97517.50
2018-12-02T18:51:02.001Z,97522.88
2018-12-02T18:53:30.131Z,97526.31
2018-12-02T18:55:57.922Z,97531.05
2018-12-02T18:58:25.646Z,97526.19
2018-12-02T19:00:53.237Z,97526.33
2018-12-02T19:03:21.611Z,97535.95
2018-12-02T19:05:49.636Z,97517.59
2018-12-02T19:08:17.171Z,97519.86
2018-12-02T19:10:45.575Z,97517.32
2018-12-02T19:13:13.133Z,97510.71
2018-12-02T19:15:40.681Z,97518.20
2018-12-02T19:18:08.403Z,97516.33
2018-12-02T19:20:36.084Z,97513.36
2018-12-02T19:23:05.010Z,97517.21
2018-12-02T19:25:32.721Z,97519.30
2018-12-02T19:28:00.407Z,97509.86
2018-12-02T19:30:32.891Z,97512.89
2018-12-02T19:32:55.688Z,97516.74
2018-12-02T19:35:24.460Z,97511.70
2018-12-02T19:37:52.869Z,97508.59
2018-12-02T19:40:21.018Z,97507.73
2018-12-02T19:42:48.677Z,97516.27
2018-12-02T19:45:17.936Z,97517.45
2018-12-02T19:47:45.655Z,97521.12
2018-12-02T19:50:15.850Z,97512.09
2018-12-02T19:52:43.602Z,97522.85
2018-12-02T19:55:12.054Z,97510.81
2018-12-02T19:57:40.072Z,97510.72
2018-12-02T20:00:13.992Z,97519.39
2018-12-02T20:02:41.564Z,97511.78
2018-12-02T20:05:09.125Z,97515.23
2018-12-02T20:07:36.699Z,97506.35
2018-12-02T20:10:05.337Z,97507.00
2018-12-02T20:12:32.985Z,97510.03
2018-12-02T20:15:00.572Z,97516.46
2018-12-02T20:17:28.240Z,97514.81
2018-12-02T20:20:01.074Z,97518.59
2018-12-02T20:22:28.896Z,97516.01
2018-12-02T20:24:56.504Z,97516.34
2018-12-02T20:27:24.177Z,97524.83
2018-12-02T20:29:51.830Z,97524.32
2018-12-02T20:32:19.546Z,97527.03
2018-12-02T20:34:47.221Z,97536.80
2018-12-02T20:37:14.888Z,97539.40
2018-12-02T20:39:42.425Z,97540.58
2018-12-02T20:42:10.189Z,97552.88
2018-12-02T20:44:37.834Z,97554.58
2018-12-02T20:47:05.577Z,97561.29
2018-12-02T20:49:33.371Z,97563.18
2018-12-02T20:52:00.992Z,97566.42
2018-12-02T20:54:28.621Z,97560.94
2018-12-02T20:56:56.284Z,97552.16
2018-12-02T20:59:24.142Z,97542.50
2018-12-02T21:01:51.748Z,97533.44
2018-12-02T21:04:19.874Z,97528.44
2018-12-02T21:06:47.571Z,97525.75
2018-12-02T21:09:15.277Z,97523.55
2018-12-02T21:11:43.004Z,97514.11
2018-12-02T21:14:10.682Z,97517.89
2018-12-02T21:16:38.439Z,97516.62
2018-12-02T21:19:06.279Z,97512.55
2018-12-02T21:21:37.134Z,97509.91
2018-12-02T21:24:02.186Z,97506.28
2018-12-02T21:26:29.859Z,97501.05
2018-12-02T21:28:57.635Z,97513.41
2018-12-02T21:31:28.667Z,97524.22
2018-12-02T21:33:56.386Z,97513.22
2018-12-02T21:36:24.111Z,97522.36
2018-12-02T21:38:51.742Z,97527.50
2018-12-02T21:41:19.314Z,97528.36
2018-12-02T21:43:46.859Z,97526.84
2018-12-02T21:46:14.514Z,97518.39
2018-12-02T21:48:42.190Z,97528.88
2018-12-02T21:51:10.217Z,97516.98
2018-12-02T21:53:37.976Z,97522.13
2018-12-02T21:56:05.734Z,97523.45
2018-12-02T21:58:33.612Z,97511.70
2018-12-02T22:01:17.467Z,97513.55
2018-12-02T22:03:45.080Z,97511.64
2018-12-02T22:06:12.653Z,97510.91
2018-12-02T22:08:43.225Z,97513.48
2018-12-02T22:11:17.147Z,97508.15
2018-12-02T22:13:46.667Z,97511.17
2018-12-02T22:16:14.493Z,97512.30
2018-12-02T22:18:42.227Z,97514.15
2018-12-02T22:21:09.829Z,97510.38
2018-12-02T22:23:37.488Z,97509.19
2018-12-02T22:26:11.519Z,97516.07
2018-12-02T22:28:39.458Z,97513.48
2018-12-02T22:31:07.314Z,97509.37
2018-12-02T22:33:37.022Z,97510.55
2018-12-02T22:38:58.379Z,97519.94
2018-12-02T22:44:11.971Z,97515.83
2018-12-02T22:46:39.572Z,97510.48
2018-12-02T22:49:07.190Z,97506.75
2018-12-02T22:51:37.486Z,97503.53
2018-12-02T22:54:05.483Z,97508.87
2018-12-02T22:56:33.196Z,97497.50
2018-12-02T22:59:00.833Z,97499.44
2018-12-02T23:01:33.809Z,97490.78
2018-12-02T23:04:01.338Z,97490.48
2018-12-02T23:06:29.035Z,97491.75
2018-12-02T23:08:56.684Z,97487.38
2018-12-02T23:11:24.792Z,97493.33
2018-12-02T23:13:52.665Z,97500.09
2018-12-02T23:16:23.754Z,97495.18
2018-12-02T23:18:51.654Z,97498.47
2018-12-02T23:23:57.383Z,97499.03
2018-12-02T23:26:25.337Z,97492.42
2018-12-02T23:28:53.980Z,97491.28
2018-12-02T23:31:25.488Z,97489.63
2018-12-02T23:33:53.721Z,97495.16
2018-12-02T23:36:21.291Z,97493.72
2018-12-02T23:38:48.919Z,97489.66
2018-12-02T23:41:16.558Z,97489.98
2018-12-02T23:43:44.232Z,97483.87
2018-12-02T23:46:12.035Z,97481.05
2018-12-02T23:48:39.725Z,97474.61
2018-12-02T23:51:07.496Z,97473.23
2018-12-02T23:53:35.041Z,97473.84
2018-12-02T23:56:02.642Z,97471.20
2018-12-02T23:58:30.294Z,97471.47
